»·PEaware :: N261AB KPIH-KDTA

N261AB :: KPIH-KDTA

FLIGHT INFORMATION

Flight Status: Arrived
Operator: Privately registered:
United States
More flights under this callsign
Pilot: Brian K. (18535)
Aircraft: BEECH AIRCRAFT BARON
(BE58)
More flights by this aircraft type
Origin: KPIH Pocatello Regl
United States
Destination: KDTA Delta Mun
United States
More flights between these airports :: More routes between these airports
Route:
File this flight plan on PilotEdge
Remarks:
Altitude:
(Current/Filed)
9,500ft
Speed:
(Current/Filed)
180kts
Departed: 11-Mar-19 04:17 PM
Arrived: 11-Mar-19 05:25 PM
Distance/Time
Traveled:
212nm/1:08
Distance/Time
To Go:
Arrived

Flight Plot

Page will automatically refresh every two minutes.

Flight plan parsing failed; only flown route is shown


Map Options




Map Legend


Flown Route
Filed Route
Departure Airport
Arrival Airport
Navaid (VOR, NDB)
Fix

Horizontal Profiles

Position Reports

Time Latitude Longitude Heading Altitude Ground
Speed
11-Mar-19 16:09 42.909650 -112.585508 314 4453ft 0kts
11-Mar-19 16:10 42.909650 -112.585508 314 4453ft 0kts
11-Mar-19 16:11 42.909650 -112.585508 314 4453ft 0kts
11-Mar-19 16:12 42.911175 -112.585122 44 4453ft 14kts
11-Mar-19 16:13 42.915269 -112.579568 45 4453ft 23kts
11-Mar-19 16:14 42.917783 -112.576655 357 4453ft 0kts
11-Mar-19 16:15 42.918351 -112.576641 356 4453ft 6kts
11-Mar-19 16:16 42.915632 -112.581889 225 4456ft 97kts
11-Mar-19 16:17 42.895744 -112.608325 190 5988ft 121kts
11-Mar-19 16:18 42.854843 -112.595003 178 6756ft 155kts
11-Mar-19 16:19 42.811641 -112.593163 181 7951ft 153kts
11-Mar-19 16:20 42.769118 -112.591967 181 9074ft 151kts
11-Mar-19 16:21 42.723990 -112.590766 180 9509ft 177kts
11-Mar-19 16:22 42.672084 -112.589285 180 9503ft 191kts
11-Mar-19 16:23 42.617876 -112.587768 180 9493ft 195kts
11-Mar-19 16:24 42.563115 -112.586244 180 9492ft 195kts
11-Mar-19 16:25 42.508283 -112.584717 181 9485ft 196kts
11-Mar-19 16:26 42.453146 -112.583193 181 9477ft 198kts
11-Mar-19 16:27 42.397781 -112.581666 181 9468ft 200kts
11-Mar-19 16:28 42.341839 -112.580127 181 9467ft 200kts
11-Mar-19 16:29 42.285911 -112.578587 181 9467ft 201kts
11-Mar-19 16:30 42.229754 -112.577043 181 9467ft 201kts
11-Mar-19 16:31 42.173432 -112.575498 181 9467ft 201kts
11-Mar-19 16:32 42.117469 -112.573965 181 9466ft 201kts
11-Mar-19 16:33 42.061103 -112.572424 181 9466ft 201kts
11-Mar-19 16:34 42.004936 -112.570891 181 9466ft 201kts
11-Mar-19 16:35 41.948707 -112.569360 181 9466ft 201kts
11-Mar-19 16:36 41.892498 -112.567831 181 9466ft 201kts
11-Mar-19 16:37 41.836150 -112.566304 181 9466ft 200kts
11-Mar-19 16:38 41.780238 -112.564790 181 9465ft 200kts
11-Mar-19 16:39 41.724500 -112.563282 181 9465ft 200kts
11-Mar-19 16:40 41.668855 -112.561775 181 9507ft 198kts
11-Mar-19 16:41 41.613488 -112.560289 181 9511ft 199kts
11-Mar-19 16:42 41.557649 -112.558786 181 9511ft 199kts
11-Mar-19 16:43 41.502200 -112.557296 181 9511ft 199kts
11-Mar-19 16:44 41.446466 -112.555801 181 9511ft 199kts
11-Mar-19 16:45 41.390834 -112.554311 181 9511ft 199kts
11-Mar-19 16:46 41.335461 -112.552831 181 9511ft 199kts
11-Mar-19 16:47 41.279893 -112.551348 181 9511ft 199kts
11-Mar-19 16:49 41.224273 -112.549867 181 9511ft 199kts
11-Mar-19 16:50 41.168913 -112.548395 181 9511ft 199kts
11-Mar-19 16:51 41.115411 -112.546966 181 9513ft 193kts
11-Mar-19 16:52 41.060508 -112.545545 180 9511ft 198kts
11-Mar-19 16:53 41.004977 -112.544071 180 9510ft 199kts
11-Mar-19 16:54 40.949166 -112.542593 179 9510ft 200kts
11-Mar-19 16:55 40.894016 -112.541123 179 9510ft 200kts
11-Mar-19 16:56 40.837662 -112.539641 179 9493ft 200kts
11-Mar-19 16:57 40.781582 -112.538167 180 9492ft 200kts
11-Mar-19 16:58 40.726078 -112.529558 170 9492ft 201kts
11-Mar-19 16:59 40.670858 -112.515744 170 9492ft 201kts
11-Mar-19 17:00 40.615693 -112.501936 170 9492ft 201kts
11-Mar-19 17:01 40.560560 -112.488130 170 9492ft 201kts
11-Mar-19 17:02 40.505395 -112.474309 170 9492ft 201kts
11-Mar-19 17:03 40.450185 -112.460471 170 9492ft 201kts
11-Mar-19 17:04 40.394903 -112.446609 170 9492ft 201kts
11-Mar-19 17:05 40.339640 -112.432746 170 9492ft 201kts
11-Mar-19 17:06 40.283790 -112.429056 185 9492ft 200kts
11-Mar-19 17:07 40.228006 -112.433971 184 9492ft 200kts
11-Mar-19 17:08 40.172450 -112.438540 184 9492ft 200kts
11-Mar-19 17:08 40.125979 -112.442334 184 9474ft 200kts
11-Mar-19 17:09 40.070005 -112.446894 184 9474ft 200kts
11-Mar-19 17:11 40.024137 -112.450622 184 9514ft 198kts
11-Mar-19 17:11 39.990300 -112.453379 184 9529ft 198kts
11-Mar-19 17:12 39.934793 -112.457885 184 9534ft 199kts
11-Mar-19 17:13 39.880718 -112.442572 161 9539ft 200kts
11-Mar-19 17:14 39.827278 -112.417720 161 9233ft 211kts
11-Mar-19 17:15 39.769967 -112.398410 181 8627ft 212kts
11-Mar-19 17:16 39.712132 -112.406284 196 8009ft 207kts
11-Mar-19 17:17 39.656733 -112.428009 197 7398ft 206kts
11-Mar-19 17:18 39.603251 -112.449021 197 7294ft 192kts
11-Mar-19 17:19 39.553053 -112.474209 205 7176ft 192kts
11-Mar-19 17:20 39.505744 -112.502708 196 7122ft 168kts
11-Mar-19 17:21 39.461413 -112.502614 181 6704ft 128kts
11-Mar-19 17:22 39.427239 -112.502030 181 5698ft 110kts
11-Mar-19 17:23 39.400371 -112.502127 181 5018ft 87kts
11-Mar-19 17:24 39.383119 -112.502239 179 4759ft 37kts
11-Mar-19 17:25 39.375980 -112.502251 185 4756ft 19kts
11-Mar-19 17:26 39.375325 -112.502485 69 4754ft 0kts
11-Mar-19 17:27 39.375326 -112.502485 70 4754ft 0kts

Navigation Log

Ident Type
Flight plan parsing failed, navigation log unavailable